Time;durP1;ratioP1;P1;durP2;ratioP2;P2;SDS_P1;SDS_P2;PMS_P1;PMS_P2;Temp;Humidity;BMP_temperature;BMP_pressure;BME280_temperature;BME280_humidity;BME280_pressure;Samples;Min_cycle;Max_cycle;Signal;HPM_P1;HPM_P2
2022/03/14 00:01:21;;;;;;;17.80;10.77;;;9.20;93.00;;;;;;5052879;28;20045;-47
2022/03/14 00:03:53;;;;;;;18.75;11.95;;;9.20;93.20;;;;;;5055590;28;20036;-46
2022/03/14 00:06:20;;;;;;;17.92;12.18;;;9.20;93.30;;;;;;5052977;28;20116;-47
2022/03/14 00:08:46;;;;;;;16.90;11.48;;;9.10;94.00;;;;;;5052904;28;20041;-46
2022/03/14 00:11:16;;;;;;;18.25;12.00;;;9.10;94.20;;;;;;5052889;28;20159;-48
2022/03/14 00:13:45;;;;;;;16.95;10.50;;;9.10;94.30;;;;;;5052642;28;20076;-50
2022/03/14 00:16:13;;;;;;;17.90;11.25;;;9.10;94.50;;;;;;5052968;28;20048;-50
2022/03/14 00:18:43;;;;;;;17.10;12.45;;;9.00;95.30;;;;;;5052829;28;20453;-49
2022/03/14 00:21:10;;;;;;;18.17;11.43;;;9.00;95.20;;;;;;5052748;28;20048;-46
2022/03/14 00:23:36;;;;;;;18.98;12.13;;;8.90;96.00;;;;;;5052427;28;20124;-50
2022/03/14 00:26:05;;;;;;;18.05;11.88;;;8.80;96.10;;;;;;5052705;28;20116;-45
2022/03/14 00:28:30;;;;;;;16.63;11.32;;;8.80;96.80;;;;;;5051174;28;20477;-51
2022/03/14 00:30:56;;;;;;;19.42;12.15;;;8.70;97.60;;;;;;5052724;28;20073;-47
2022/03/14 00:33:22;;;;;;;20.10;11.80;;;8.70;97.90;;;;;;5052374;28;20060;-45
2022/03/14 00:35:47;;;;;;;18.95;11.95;;;8.60;98.80;;;;;;5052471;28;20037;-48
2022/03/14 00:38:15;;;;;;;18.05;11.85;;;8.50;99.80;;;;;;5052524;28;20051;-48
2022/03/14 00:40:40;;;;;;;19.67;12.23;;;8.50;99.90;;;;;;5052487;28;20044;-45
2022/03/14 00:43:07;;;;;;;19.80;13.50;;;8.50;99.90;;;;;;5052399;28;20393;-45
2022/03/14 00:45:34;;;;;;;18.13;12.68;;;8.40;99.90;;;;;;5052533;28;20055;-46
2022/03/14 00:48:00;;;;;;;17.50;12.27;;;8.40;99.90;;;;;;5052536;28;20041;-44
2022/03/14 00:50:26;;;;;;;19.25;12.20;;;8.40;99.90;;;;;;5052526;28;20048;-47
2022/03/14 00:52:52;;;;;;;20.35;12.75;;;8.30;99.90;;;;;;5052451;28;20428;-46
2022/03/14 00:55:19;;;;;;;18.45;12.80;;;8.40;99.90;;;;;;5052098;28;20098;-47
2022/03/14 00:57:44;;;;;;;19.10;12.68;;;8.40;99.90;;;;;;5052132;28;20523;-47
2022/03/14 01:00:11;;;;;;;18.90;12.65;;;8.40;99.90;;;;;;5052284;28;20116;-46
2022/03/14 01:02:37;;;;;;;19.75;13.40;;;8.40;99.90;;;;;;5052223;28;20460;-46
2022/03/14 01:05:02;;;;;;;20.30;12.95;;;8.40;99.90;;;;;;5054414;28;20051;-46
2022/03/14 01:07:28;;;;;;;18.65;12.60;;;8.50;99.90;;;;;;5052019;28;20036;-47
2022/03/14 01:09:54;;;;;;;18.70;12.57;;;8.50;99.90;;;;;;5051913;28;20044;-46
2022/03/14 01:12:20;;;;;;;20.10;12.73;;;8.50;99.90;;;;;;5052185;28;20044;-45
2022/03/14 01:14:45;;;;;;;20.27;12.40;;;8.60;99.90;;;;;;5051952;28;20033;-45
2022/03/14 01:17:11;;;;;;;17.30;12.57;;;8.80;99.90;;;;;;5051903;28;20115;-45
2022/03/14 01:19:38;;;;;;;21.48;12.50;;;8.70;99.90;;;;;;5052000;28;20059;-45
2022/03/14 01:22:10;;;;;;;21.27;12.55;;;8.80;99.90;;;;;;5051909;28;20477;-45
2022/03/14 01:24:38;;;;;;;20.98;13.38;;;8.80;99.90;;;;;;5054224;28;20063;-45
2022/03/14 01:27:05;;;;;;;19.67;13.02;;;8.80;99.90;;;;;;5055781;28;20037;-45
2022/03/14 01:29:31;;;;;;;21.50;12.77;;;8.90;99.90;;;;;;5055575;28;20056;-45
2022/03/14 01:31:58;;;;;;;19.20;12.52;;;9.00;99.90;;;;;;5054543;28;20051;-45
2022/03/14 01:34:24;;;;;;;18.55;12.45;;;8.90;99.90;;;;;;5055989;28;20041;-46
2022/03/14 01:36:50;;;;;;;17.80;12.27;;;8.90;99.90;;;;;;5055653;28;20108;-46
2022/03/14 01:39:15;;;;;;;19.05;13.20;;;9.00;99.90;;;;;;5054282;28;20057;-47
2022/03/14 01:41:41;;;;;;;22.25;13.30;;;8.90;99.90;;;;;;5055508;28;20044;-50
2022/03/14 01:44:07;;;;;;;18.58;12.93;;;8.90;99.90;;;;;;5055302;28;20111;-46
2022/03/14 01:46:32;;;;;;;19.55;12.45;;;8.90;99.90;;;;;;5054561;28;20474;-45
2022/03/14 01:49:00;;;;;;;20.98;13.40;;;8.90;99.90;;;;;;5055351;28;20125;-45
2022/03/14 01:51:25;;;;;;;20.17;12.77;;;8.90;99.90;;;;;;5055356;28;20602;-45
2022/03/14 01:53:52;;;;;;;20.40;13.40;;;8.90;99.90;;;;;;5055319;28;20047;-45
2022/03/14 01:56:18;;;;;;;19.10;13.30;;;8.90;99.90;;;;;;5054185;28;20084;-45
2022/03/14 01:58:46;;;;;;;20.40;12.95;;;8.90;99.90;;;;;;5055468;28;20045;-47
2022/03/14 02:01:11;;;;;;;18.85;12.73;;;9.00;99.90;;;;;;5055343;28;20128;-45
2022/03/14 02:03:37;;;;;;;18.83;13.48;;;9.00;99.90;;;;;;5057350;28;20043;-47
2022/03/14 02:06:03;;;;;;;20.40;12.80;;;9.00;99.90;;;;;;5055283;28;20053;-45
2022/03/14 02:08:28;;;;;;;19.85;13.27;;;9.00;99.90;;;;;;5055300;28;20037;-45
2022/03/14 02:10:54;;;;;;;17.35;12.18;;;9.10;99.90;;;;;;5054970;28;20484;-46
2022/03/14 02:13:21;;;;;;;21.40;13.63;;;9.10;99.90;;;;;;5055066;28;20048;-47
2022/03/14 02:15:47;;;;;;;17.00;12.23;;;9.10;99.90;;;;;;5055089;28;20056;-47
2022/03/14 02:18:13;;;;;;;19.70;12.32;;;9.10;99.90;;;;;;5054871;28;20044;-46
2022/03/14 02:20:38;;;;;;;18.40;12.88;;;9.20;99.90;;;;;;5055114;28;20041;-45
2022/03/14 02:23:04;;;;;;;19.25;12.95;;;9.10;99.90;;;;;;5054721;28;20036;-45
2022/03/14 02:25:32;;;;;;;19.98;12.90;;;9.10;99.90;;;;;;5055024;28;20037;-45
2022/03/14 02:27:58;;;;;;;20.63;12.93;;;9.10;99.90;;;;;;5054564;28;20521;-47
2022/03/14 02:30:23;;;;;;;18.60;12.40;;;9.10;99.90;;;;;;5053712;28;20040;-47
2022/03/14 02:32:49;;;;;;;18.45;12.00;;;9.00;99.90;;;;;;5036735;28;20037;-45
2022/03/14 02:35:15;;;;;;;21.70;12.65;;;9.10;99.90;;;;;;5053247;28;20397;-45
2022/03/14 02:37:41;;;;;;;19.98;12.48;;;9.10;99.90;;;;;;5054439;28;20051;-45
2022/03/14 02:40:08;;;;;;;19.23;12.70;;;9.00;99.90;;;;;;5054710;28;20040;-45
2022/03/14 02:42:34;;;;;;;18.85;12.90;;;9.10;99.90;;;;;;5069858;28;20053;-46
2022/03/14 02:45:02;;;;;;;19.15;12.48;;;9.10;99.90;;;;;;5053014;28;20052;-45
2022/03/14 02:47:28;;;;;;;17.40;12.02;;;9.10;99.90;;;;;;5054539;28;20119;-45
2022/03/14 02:49:53;;;;;;;19.92;12.93;;;9.10;99.90;;;;;;5054319;28;20044;-46
2022/03/14 02:52:19;;;;;;;17.85;12.13;;;9.10;99.90;;;;;;5054545;28;20048;-45
2022/03/14 02:54:45;;;;;;;19.60;12.77;;;9.10;99.90;;;;;;5054396;28;20052;-45
2022/03/14 02:57:11;;;;;;;21.23;12.75;;;9.10;99.90;;;;;;5054476;28;20188;-46
2022/03/14 02:59:37;;;;;;;18.00;12.20;;;9.10;99.90;;;;;;5054149;28;20036;-46
2022/03/14 03:02:03;;;;;;;18.17;12.63;;;9.10;99.90;;;;;;5053986;28;20098;-46
2022/03/14 03:04:29;;;;;;;17.58;11.27;;;9.00;99.90;;;;;;5056206;28;20049;-46
2022/03/14 03:06:54;;;;;;;19.27;12.07;;;9.10;99.90;;;;;;5054134;28;20087;-45
2022/03/14 03:09:20;;;;;;;18.42;11.70;;;9.10;99.90;;;;;;5054087;28;20495;-49
2022/03/14 03:11:46;;;;;;;17.35;11.40;;;9.10;99.90;;;;;;5054057;28;20041;-48
2022/03/14 03:14:12;;;;;;;17.92;11.48;;;9.10;99.90;;;;;;5054078;28;20066;-46
2022/03/14 03:16:38;;;;;;;16.77;11.55;;;9.10;99.90;;;;;;5052569;28;20045;-45
2022/03/14 03:19:06;;;;;;;17.45;12.43;;;9.10;99.90;;;;;;5053709;28;20048;-46
2022/03/14 03:21:34;;;;;;;18.08;12.00;;;9.10;99.90;;;;;;5053965;28;20041;-46
2022/03/14 03:24:00;;;;;;;17.63;12.45;;;9.00;99.90;;;;;;5053874;28;20067;-46
2022/03/14 03:26:26;;;;;;;17.55;12.27;;;9.10;99.90;;;;;;5053564;28;20052;-48
2022/03/14 03:28:52;;;;;;;18.42;12.15;;;9.10;99.90;;;;;;5053413;28;20053;-45
2022/03/14 03:31:19;;;;;;;18.40;12.02;;;9.10;99.90;;;;;;5053476;28;20037;-46
2022/03/14 03:33:47;;;;;;;16.88;11.35;;;9.10;99.90;;;;;;5052053;28;20531;-45
2022/03/14 03:36:13;;;;;;;16.80;11.15;;;9.10;99.90;;;;;;5053639;28;20049;-45
2022/03/14 03:38:39;;;;;;;16.75;11.30;;;9.00;99.90;;;;;;5052427;28;20159;-46
2022/03/14 03:41:05;;;;;;;17.08;11.57;;;9.00;99.90;;;;;;5053592;28;20037;-45
2022/03/14 03:43:31;;;;;;;17.42;11.52;;;9.10;99.90;;;;;;5053338;28;20063;-45
2022/03/14 03:45:57;;;;;;;15.73;10.43;;;9.10;99.90;;;;;;5053007;28;20090;-45
2022/03/14 03:48:22;;;;;;;16.98;11.70;;;9.10;99.90;;;;;;5053134;28;20071;-45
2022/03/14 03:50:49;;;;;;;19.20;11.63;;;9.10;99.90;;;;;;5053535;28;20049;-45
2022/03/14 03:53:14;;;;;;;16.60;10.90;;;9.00;99.90;;;;;;5053158;28;20032;-45
2022/03/14 03:55:40;;;;;;;17.15;11.45;;;9.00;99.90;;;;;;5053107;28;20500;-45
2022/03/14 03:58:06;;;;;;;15.10;10.48;;;9.00;99.90;;;;;;5053214;28;20060;-46
2022/03/14 04:00:31;;;;;;;15.00;10.07;;;9.00;99.90;;;;;;5053279;28;20044;-46
2022/03/14 04:02:58;;;;;;;17.38;11.07;;;9.00;99.90;;;;;;5052645;28;20051;-47
2022/03/14 04:05:25;;;;;;;17.50;10.85;;;9.10;99.90;;;;;;5055410;28;20037;-47
2022/03/14 04:07:54;;;;;;;16.98;10.27;;;9.10;99.90;;;;;;5052970;28;20118;-45
2022/03/14 04:10:20;;;;;;;16.05;10.45;;;9.00;99.90;;;;;;5053000;28;20060;-46
2022/03/14 04:12:45;;;;;;;21.27;10.48;;;9.00;99.90;;;;;;5052962;28;20397;-45
2022/03/14 04:15:12;;;;;;;15.18;10.13;;;9.00;99.90;;;;;;5052900;28;20041;-45
2022/03/14 04:17:39;;;;;;;15.30;10.00;;;9.00;99.90;;;;;;5052886;28;20129;-46
2022/03/14 04:20:06;;;;;;;14.57;9.18;;;9.00;99.90;;;;;;5052905;28;20072;-46
2022/03/14 04:22:32;;;;;;;13.05;9.13;;;9.00;99.90;;;;;;5052555;28;20120;-45
2022/03/14 04:24:59;;;;;;;13.30;8.70;;;9.00;99.90;;;;;;5052687;28;20123;-46
2022/03/14 04:27:26;;;;;;;14.20;8.88;;;8.90;99.90;;;;;;5052452;28;20087;-46
2022/03/14 04:29:52;;;;;;;13.93;8.82;;;9.00;99.90;;;;;;5052266;28;20406;-47
2022/03/14 04:32:18;;;;;;;14.38;8.82;;;8.90;99.90;;;;;;5052696;28;20048;-45
2022/03/14 04:34:44;;;;;;;14.77;9.18;;;9.00;99.90;;;;;;5052671;28;20136;-50
2022/03/14 04:37:11;;;;;;;13.15;9.05;;;8.90;99.90;;;;;;5052312;28;20127;-45
2022/03/14 04:39:37;;;;;;;13.48;8.60;;;8.90;99.90;;;;;;5051245;28;20505;-47
2022/03/14 04:42:02;;;;;;;13.15;8.07;;;8.90;99.90;;;;;;5052578;28;20119;-48
2022/03/14 04:44:29;;;;;;;13.18;8.40;;;8.90;99.90;;;;;;5052141;28;20037;-49
2022/03/14 04:46:54;;;;;;;14.32;8.63;;;8.90;99.90;;;;;;5052483;28;20385;-46
2022/03/14 04:49:20;;;;;;;12.77;8.73;;;8.90;99.90;;;;;;5052327;28;20045;-46
2022/03/14 04:51:50;;;;;;;13.35;7.70;;;8.90;99.90;;;;;;5052459;28;20037;-48
2022/03/14 04:54:16;;;;;;;12.68;7.40;;;8.90;99.90;;;;;;5052235;28;20425;-46
2022/03/14 04:56:41;;;;;;;12.13;7.80;;;8.90;99.90;;;;;;5051932;28;20045;-47
2022/03/14 04:59:07;;;;;;;11.38;7.20;;;8.80;99.90;;;;;;5051271;28;20048;-47
2022/03/14 05:01:33;;;;;;;13.23;7.43;;;8.80;99.90;;;;;;5052292;28;20505;-47
2022/03/14 05:03:59;;;;;;;11.90;7.60;;;8.80;99.90;;;;;;5054270;28;20067;-46
2022/03/14 05:06:24;;;;;;;12.18;7.30;;;8.80;99.90;;;;;;5052208;28;20041;-45
2022/03/14 05:08:50;;;;;;;11.85;6.70;;;8.80;99.90;;;;;;5052308;28;20041;-46
2022/03/14 05:11:16;;;;;;;11.82;6.65;;;8.90;99.90;;;;;;5052053;28;20041;-45
2022/03/14 05:13:42;;;;;;;11.27;7.50;;;8.90;99.90;;;;;;5051849;28;20078;-47
2022/03/14 05:16:08;;;;;;;12.23;7.10;;;8.90;99.90;;;;;;5051901;28;20048;-46
2022/03/14 05:18:34;;;;;;;9.90;6.57;;;8.90;99.90;;;;;;5050644;28;20060;-47
2022/03/14 05:21:01;;;;;;;11.18;6.95;;;8.90;99.90;;;;;;5051788;28;20041;-45
2022/03/14 05:23:28;;;;;;;10.82;6.13;;;8.90;99.90;;;;;;5051770;28;20401;-46
2022/03/14 05:25:57;;;;;;;11.45;6.53;;;8.90;99.90;;;;;;5051683;28;20080;-45
2022/03/14 05:28:23;;;;;;;13.23;7.63;;;8.90;99.90;;;;;;5051585;28;20064;-46
2022/03/14 05:30:48;;;;;;;11.50;6.65;;;8.90;99.90;;;;;;5050746;28;20041;-45
2022/03/14 05:33:14;;;;;;;12.07;7.05;;;8.90;99.90;;;;;;5033857;28;20037;-49
2022/03/14 05:35:40;;;;;;;11.55;7.10;;;8.90;99.90;;;;;;5051935;28;20464;-47
2022/03/14 05:38:05;;;;;;;10.88;7.10;;;8.90;99.90;;;;;;5051811;28;20040;-47
2022/03/14 05:40:31;;;;;;;10.77;6.50;;;8.90;99.90;;;;;;5052025;28;20481;-49
2022/03/14 05:42:57;;;;;;;10.05;6.32;;;8.90;99.90;;;;;;5051970;28;20419;-46
2022/03/14 05:45:23;;;;;;;10.38;6.93;;;8.90;99.90;;;;;;5051671;28;20521;-47
2022/03/14 05:47:49;;;;;;;10.25;6.50;;;8.90;99.90;;;;;;5051832;28;20032;-46
2022/03/14 05:50:15;;;;;;;8.82;5.32;;;9.00;99.90;;;;;;5051840;28;20037;-50
2022/03/14 05:52:41;;;;;;;10.75;6.57;;;9.00;99.90;;;;;;5050448;28;20041;-47
2022/03/14 05:55:08;;;;;;;9.38;5.53;;;9.00;99.90;;;;;;5051504;28;20037;-46
2022/03/14 05:57:34;;;;;;;9.18;5.72;;;9.00;99.90;;;;;;5051421;28;20057;-47
2022/03/14 06:00:00;;;;;;;11.25;5.88;;;9.00;99.90;;;;;;5051587;28;20041;-47
2022/03/14 06:02:25;;;;;;;9.20;5.53;;;8.90;99.90;;;;;;5051749;28;20037;-46
2022/03/14 06:04:52;;;;;;;9.70;6.13;;;8.90;99.90;;;;;;5053687;28;20485;-46
2022/03/14 06:07:22;;;;;;;10.80;6.32;;;8.90;99.90;;;;;;5051626;28;20049;-46
2022/03/14 06:09:51;;;;;;;12.10;5.90;;;8.90;99.90;;;;;;5052717;28;20430;-45
2022/03/14 06:12:24;;;;;;;8.73;5.45;;;8.90;99.90;;;;;;5055336;28;20083;-48
2022/03/14 06:14:55;;;;;;;9.40;5.75;;;8.90;99.90;;;;;;5055076;28;20123;-48
2022/03/14 06:17:21;;;;;;;9.48;5.78;;;8.90;99.90;;;;;;5055084;28;20155;-48
2022/03/14 06:19:47;;;;;;;9.38;5.70;;;8.90;99.90;;;;;;5055030;28;20071;-49
2022/03/14 06:22:21;;;;;;;9.23;5.57;;;8.90;99.90;;;;;;5055136;28;20036;-46
2022/03/14 06:24:48;;;;;;;9.05;5.45;;;8.90;99.90;;;;;;5054836;28;20053;-45
2022/03/14 06:27:18;;;;;;;8.90;5.78;;;8.90;99.90;;;;;;5053436;28;20040;-48
2022/03/14 06:29:44;;;;;;;9.85;5.70;;;9.00;99.90;;;;;;5052036;28;20119;-48
2022/03/14 06:32:11;;;;;;;9.70;5.80;;;8.90;99.90;;;;;;5053639;28;20052;-45
2022/03/14 06:34:39;;;;;;;9.45;5.70;;;9.00;99.90;;;;;;5054032;28;20378;-46
2022/03/14 06:37:09;;;;;;;9.98;5.68;;;8.90;99.90;;;;;;5053828;28;20041;-45
2022/03/14 06:39:35;;;;;;;9.07;5.32;;;9.00;99.90;;;;;;5053470;28;20110;-48
2022/03/14 06:42:03;;;;;;;8.45;4.88;;;8.90;99.90;;;;;;5053619;28;20048;-47
2022/03/14 06:44:29;;;;;;;8.88;5.15;;;9.00;99.90;;;;;;5053809;28;20128;-50
2022/03/14 06:46:55;;;;;;;8.95;4.80;;;8.90;99.90;;;;;;5053587;28;20037;-46
2022/03/14 06:49:21;;;;;;;8.05;4.90;;;9.00;99.90;;;;;;5053558;28;20434;-46
2022/03/14 06:51:49;;;;;;;8.48;4.82;;;9.00;99.90;;;;;;5056998;28;20115;-46
2022/03/14 06:54:14;;;;;;;8.10;4.75;;;8.90;99.90;;;;;;5064192;28;20119;-45
2022/03/14 06:56:43;;;;;;;8.63;4.75;;;9.00;99.90;;;;;;5060021;28;20588;-48
2022/03/14 06:59:09;;;;;;;8.02;4.40;;;9.00;99.90;;;;;;5053722;28;20396;-47
2022/03/14 07:01:35;;;;;;;8.32;4.43;;;9.00;99.90;;;;;;5053320;28;20107;-47
2022/03/14 07:04:03;;;;;;;8.57;5.10;;;9.00;99.90;;;;;;5055561;28;20068;-47
2022/03/14 07:06:29;;;;;;;9.77;5.18;;;9.00;99.90;;;;;;5053495;28;20045;-47
2022/03/14 07:08:55;;;;;;;11.23;6.20;;;9.00;99.90;;;;;;5053488;28;20040;-48
2022/03/14 07:11:20;;;;;;;10.45;6.07;;;9.00;99.90;;;;;;5053199;28;20083;-45
2022/03/14 07:13:46;;;;;;;12.30;7.35;;;9.00;99.90;;;;;;5051769;28;20103;-47
2022/03/14 07:16:11;;;;;;;13.15;7.93;;;9.00;99.90;;;;;;5052839;28;20045;-47
2022/03/14 07:18:37;;;;;;;15.15;8.80;;;9.00;99.90;;;;;;5053157;28;20033;-45
2022/03/14 07:21:03;;;;;;;17.25;9.85;;;9.00;99.90;;;;;;5052587;28;20047;-48
2022/03/14 07:23:29;;;;;;;12.32;7.15;;;9.10;99.90;;;;;;5052927;28;20071;-48
2022/03/14 07:25:55;;;;;;;13.40;6.75;;;9.00;99.90;;;;;;5053174;28;20377;-50
2022/03/14 07:28:20;;;;;;;11.50;6.82;;;9.00;99.90;;;;;;5052687;28;20061;-47
2022/03/14 07:30:47;;;;;;;10.60;6.93;;;9.10;99.90;;;;;;5052832;28;20045;-47
2022/03/14 07:33:12;;;;;;;10.35;6.38;;;9.10;99.90;;;;;;5052915;28;20441;-49
2022/03/14 07:35:38;;;;;;;9.85;5.90;;;9.10;99.90;;;;;;5051603;28;20147;-50
2022/03/14 07:38:05;;;;;;;10.40;6.15;;;9.10;99.90;;;;;;5052667;28;20098;-46
2022/03/14 07:40:32;;;;;;;14.00;8.18;;;9.10;99.90;;;;;;5051884;28;20120;-46
2022/03/14 07:42:59;;;;;;;8.43;5.30;;;9.10;99.90;;;;;;5052307;28;20576;-45
2022/03/14 07:45:26;;;;;;;8.73;5.25;;;9.20;99.90;;;;;;5051998;28;20478;-47
2022/03/14 07:47:57;;;;;;;9.32;5.25;;;9.20;99.90;;;;;;5056505;28;20033;-46
2022/03/14 07:50:24;;;;;;;11.10;5.17;;;9.20;99.90;;;;;;5057911;28;20033;-49
2022/03/14 07:52:50;;;;;;;8.90;5.75;;;9.20;99.90;;;;;;5063583;28;20028;-46
2022/03/14 07:55:16;;;;;;;8.20;4.95;;;9.20;99.90;;;;;;5072309;28;20049;-47
2022/03/14 07:57:43;;;;;;;9.32;5.13;;;9.30;99.90;;;;;;5072182;28;20040;-49
2022/03/14 08:00:18;;;;;;;8.73;5.00;;;9.30;99.90;;;;;;5072202;28;20435;-48
2022/03/14 08:02:44;;;;;;;8.40;5.07;;;9.30;99.90;;;;;;5072012;28;20051;-46
2022/03/14 08:05:15;;;;;;;8.70;4.95;;;9.40;99.90;;;;;;5059419;28;20055;-48
2022/03/14 08:07:44;;;;;;;9.10;5.28;;;9.40;99.90;;;;;;5052024;28;20037;-47
2022/03/14 08:10:11;;;;;;;9.10;5.18;;;9.30;99.90;;;;;;5051959;28;20044;-46
2022/03/14 08:12:46;;;;;;;8.65;5.30;;;9.40;99.90;;;;;;5051853;28;20051;-47
2022/03/14 08:15:30;;;;;;;8.93;5.15;;;9.40;99.90;;;;;;5050745;28;20047;-46
2022/03/14 08:18:14;;;;;;;8.75;4.90;;;9.40;99.90;;;;;;5051809;28;20045;-45
2022/03/14 08:20:40;;;;;;;7.90;4.93;;;9.40;99.90;;;;;;5051873;28;20424;-46
2022/03/14 08:23:06;;;;;;;9.00;5.03;;;9.40;99.90;;;;;;5051823;28;20124;-47
2022/03/14 08:25:36;;;;;;;8.68;5.45;;;9.40;99.90;;;;;;5051726;28;20122;-45
2022/03/14 08:28:02;;;;;;;9.35;5.07;;;9.50;99.90;;;;;;5051704;28;20040;-45
2022/03/14 08:30:28;;;;;;;7.90;5.22;;;9.50;99.90;;;;;;5051531;28;20496;-46
2022/03/14 08:32:56;;;;;;;9.75;5.25;;;9.40;99.90;;;;;;5051924;28;20037;-46
2022/03/14 08:35:22;;;;;;;8.80;5.45;;;9.40;99.90;;;;;;5051637;28;20052;-45
2022/03/14 08:37:50;;;;;;;11.05;5.75;;;9.50;99.90;;;;;;5051610;28;20048;-49
2022/03/14 08:40:20;;;;;;;10.07;5.90;;;9.50;99.90;;;;;;5051396;28;20045;-47
2022/03/14 08:42:46;;;;;;;11.82;5.95;;;9.50;99.90;;;;;;5051766;28;20116;-47
2022/03/14 08:45:12;;;;;;;13.27;6.97;;;9.50;99.90;;;;;;5051693;28;20124;-46
2022/03/14 08:47:38;;;;;;;11.32;6.65;;;9.50;99.90;;;;;;5051480;28;20087;-45
2022/03/14 08:50:07;;;;;;;11.80;6.50;;;9.50;99.90;;;;;;5049948;28;20075;-48
2022/03/14 08:52:34;;;;;;;12.32;7.05;;;9.50;99.90;;;;;;5058840;28;20072;-51
2022/03/14 08:55:00;;;;;;;12.50;7.00;;;9.50;99.90;;;;;;5055373;28;20143;-51
2022/03/14 08:57:26;;;;;;;9.32;5.70;;;9.60;99.90;;;;;;5055405;28;20510;-47
2022/03/14 08:59:52;;;;;;;10.25;6.32;;;9.60;99.90;;;;;;5050992;28;20037;-47
2022/03/14 09:02:18;;;;;;;10.77;6.15;;;9.70;99.90;;;;;;5051915;28;20358;-51
2022/03/14 09:04:43;;;;;;;10.25;6.15;;;9.60;99.90;;;;;;5051931;28;20076;-49
2022/03/14 09:07:10;;;;;;;9.98;6.10;;;9.70;99.90;;;;;;5049558;28;20525;-49
2022/03/14 09:09:36;;;;;;;9.88;6.57;;;9.70;99.90;;;;;;5049633;28;20033;-47
2022/03/14 09:12:02;;;;;;;10.75;6.35;;;9.80;99.90;;;;;;5049935;28;20560;-49
2022/03/14 09:14:28;;;;;;;10.13;7.10;;;9.80;99.90;;;;;;5051707;28;20044;-52
2022/03/14 09:16:53;;;;;;;11.30;6.63;;;9.80;99.90;;;;;;5050482;28;20044;-51
2022/03/14 09:19:19;;;;;;;9.65;6.95;;;9.80;99.90;;;;;;5048330;28;20032;-47
2022/03/14 09:21:45;;;;;;;10.50;7.25;;;9.80;99.90;;;;;;5049133;28;20048;-47
2022/03/14 09:24:10;;;;;;;11.32;6.85;;;9.80;99.90;;;;;;5051522;28;20068;-46
2022/03/14 09:26:37;;;;;;;10.70;7.47;;;9.80;99.90;;;;;;5048720;28;20126;-46
2022/03/14 09:29:04;;;;;;;11.30;6.90;;;9.80;99.90;;;;;;5050252;28;20053;-49
2022/03/14 09:31:30;;;;;;;10.80;7.45;;;9.70;99.90;;;;;;5049873;28;20048;-52
2022/03/14 09:33:57;;;;;;;12.10;8.80;;;9.70;99.90;;;;;;5058456;28;20592;-49
2022/03/14 09:36:23;;;;;;;16.42;11.85;;;9.80;99.90;;;;;;5070076;28;20048;-45
2022/03/14 09:38:49;;;;;;;17.35;12.25;;;9.70;99.90;;;;;;5070402;28;20052;-46
2022/03/14 09:41:19;;;;;;;20.20;14.00;;;9.70;99.90;;;;;;5070050;28;20040;-48
2022/03/14 09:43:47;;;;;;;19.75;14.70;;;9.70;99.90;;;;;;5068796;28;20396;-46
2022/03/14 09:46:13;;;;;;;21.48;15.65;;;9.70;99.90;;;;;;5073873;28;20036;-45
2022/03/14 09:48:49;;;;;;;25.00;16.92;;;9.60;99.90;;;;;;5074339;28;20444;-46
2022/03/14 09:51:17;;;;;;;26.95;18.00;;;9.60;99.90;;;;;;5074475;28;20037;-46
2022/03/14 09:53:44;;;;;;;26.35;18.65;;;9.50;99.90;;;;;;5065985;28;20044;-45
2022/03/14 09:56:10;;;;;;;28.20;18.90;;;9.50;99.90;;;;;;5062545;28;20033;-46
2022/03/14 09:58:36;;;;;;;27.50;18.25;;;9.50;99.90;;;;;;5054598;28;20048;-45
2022/03/14 10:01:03;;;;;;;29.85;20.08;;;9.40;99.90;;;;;;5062388;28;20032;-45
2022/03/14 10:03:29;;;;;;;29.85;19.77;;;9.30;99.90;;;;;;5057849;28;20060;-46
2022/03/14 10:05:55;;;;;;;32.30;21.15;;;9.20;99.90;;;;;;5055121;28;20529;-45
2022/03/14 10:08:22;;;;;;;29.02;17.58;;;9.20;99.90;;;;;;5054097;28;20036;-45
2022/03/14 10:10:49;;;;;;;23.88;15.60;;;9.10;99.90;;;;;;5059443;28;20060;-45
2022/03/14 10:13:16;;;;;;;25.02;16.90;;;9.10;99.90;;;;;;5061862;28;20040;-46
2022/03/14 10:15:43;;;;;;;24.10;15.85;;;9.00;99.90;;;;;;5063095;28;20381;-48
2022/03/14 10:18:17;;;;;;;25.60;14.25;;;9.00;99.90;;;;;;5065910;28;20492;-45
2022/03/14 10:21:05;;;;;;;22.15;13.00;;;8.90;99.90;;;;;;5070514;28;20430;-50
2022/03/14 10:23:43;;;;;;;23.75;12.38;;;8.90;99.90;;;;;;5062785;28;20509;-49
2022/03/14 10:26:16;;;;;;;22.38;11.13;;;8.90;99.90;;;;;;5065079;28;20401;-45
2022/03/14 10:28:42;;;;;;;27.58;11.73;;;9.00;99.90;;;;;;5061315;28;20113;-48
2022/03/14 10:31:08;;;;;;;23.30;10.75;;;9.10;99.90;;;;;;5065648;28;20048;-49
2022/03/14 10:33:34;;;;;;;21.08;9.75;;;8.90;99.90;;;;;;5064868;28;20108;-48
2022/03/14 10:36:00;;;;;;;20.70;9.20;;;9.00;99.90;;;;;;5059659;28;20766;-45
2022/03/14 10:38:27;;;;;;;25.48;10.98;;;9.20;99.90;;;;;;5053569;28;20132;-47
2022/03/14 10:40:56;;;;;;;24.52;10.10;;;9.10;99.90;;;;;;5054366;28;20045;-46
2022/03/14 10:43:28;;;;;;;21.75;9.52;;;9.10;99.90;;;;;;5063519;28;20158;-46
2022/03/14 10:45:59;;;;;;;23.15;10.70;;;9.20;99.90;;;;;;5064512;28;20037;-46
2022/03/14 10:48:32;;;;;;;22.25;10.23;;;9.20;99.90;;;;;;5064103;28;20036;-46
2022/03/14 10:51:05;;;;;;;22.05;11.30;;;9.20;99.90;;;;;;5063512;28;20040;-47
2022/03/14 10:53:32;;;;;;;21.05;9.23;;;9.30;99.90;;;;;;5062389;28;20029;-46
2022/03/14 10:55:59;;;;;;;17.83;8.43;;;9.20;99.90;;;;;;5055350;28;20060;-51
2022/03/14 10:58:30;;;;;;;23.75;9.27;;;9.30;99.90;;;;;;5061576;28;20033;-46
2022/03/14 11:00:58;;;;;;;17.95;8.15;;;9.30;99.90;;;;;;5059841;28;20025;-46
2022/03/14 11:03:26;;;;;;;19.45;7.93;;;9.40;99.90;;;;;;5044853;28;20044;-47
2022/03/14 11:06:01;;;;;;;21.70;8.98;;;9.40;99.90;;;;;;5060872;28;20477;-49
2022/03/14 11:08:38;;;;;;;17.15;7.93;;;9.30;99.90;;;;;;5062473;28;20037;-48
2022/03/14 11:11:13;;;;;;;18.20;8.45;;;9.40;99.90;;;;;;5062544;28;20045;-48
2022/03/14 11:13:50;;;;;;;21.13;8.75;;;9.40;99.90;;;;;;5063125;28;20055;-47
2022/03/14 11:16:21;;;;;;;19.15;8.23;;;9.50;99.90;;;;;;5063120;28;20043;-50
2022/03/14 11:18:48;;;;;;;21.50;9.48;;;9.50;99.90;;;;;;5061646;28;20048;-47
2022/03/14 11:21:15;;;;;;;21.02;8.70;;;9.60;99.90;;;;;;5062618;28;20047;-48
2022/03/14 11:23:46;;;;;;;27.02;9.95;;;9.50;99.90;;;;;;5063063;28;20377;-48
2022/03/14 11:26:17;;;;;;;23.15;10.10;;;9.50;99.90;;;;;;5053675;28;20056;-46
2022/03/14 11:28:46;;;;;;;15.40;7.88;;;9.70;99.90;;;;;;5053379;28;20060;-46
2022/03/14 11:31:12;;;;;;;14.88;6.93;;;9.70;99.90;;;;;;5052375;28;20409;-46
2022/03/14 11:33:38;;;;;;;15.73;7.28;;;9.70;99.90;;;;;;5053726;28;20036;-45
2022/03/14 11:36:06;;;;;;;16.92;6.68;;;9.60;99.90;;;;;;5053385;28;20055;-46
2022/03/14 11:38:33;;;;;;;16.40;7.75;;;9.70;99.90;;;;;;5053469;28;20110;-46
2022/03/14 11:41:00;;;;;;;18.98;8.68;;;9.70;99.90;;;;;;5053395;28;20053;-46
2022/03/14 11:43:27;;;;;;;18.95;7.40;;;9.70;99.90;;;;;;5053195;28;20063;-46
2022/03/14 11:45:54;;;;;;;17.08;8.15;;;9.70;99.90;;;;;;5053167;28;20084;-46
2022/03/14 11:48:21;;;;;;;20.63;8.88;;;9.60;99.90;;;;;;5053215;28;20032;-49
2022/03/14 11:51:06;;;;;;;18.85;8.80;;;9.60;99.90;;;;;;5052947;28;20409;-49
2022/03/14 11:53:46;;;;;;;15.55;7.90;;;9.60;99.90;;;;;;5053231;28;20037;-46
2022/03/14 11:56:12;;;;;;;17.30;8.30;;;9.60;99.90;;;;;;5053112;28;20045;-46
2022/03/14 11:58:53;;;;;;;18.90;8.38;;;9.60;99.90;;;;;;5053188;28;20360;-47
2022/03/14 12:01:22;;;;;;;15.68;8.88;;;9.60;99.90;;;;;;5052849;28;20041;-47
2022/03/14 12:03:59;;;;;;;19.08;9.82;;;9.70;99.90;;;;;;5054964;28;20045;-48
2022/03/14 12:06:47;;;;;;;16.13;8.63;;;9.70;99.90;;;;;;5052923;28;20036;-48
2022/03/14 12:09:27;;;;;;;16.83;8.55;;;9.80;99.90;;;;;;5052193;28;20351;-46
2022/03/14 12:11:54;;;;;;;20.77;8.82;;;9.80;99.90;;;;;;5052888;28;20037;-47
2022/03/14 12:14:42;;;;;;;17.35;8.13;;;9.80;99.90;;;;;;5053119;28;20107;-45
2022/03/14 12:17:14;;;;;;;18.33;9.75;;;10.00;99.90;;;;;;5051345;28;20083;-46
2022/03/14 12:19:56;;;;;;;21.25;10.50;;;9.90;99.90;;;;;;5051356;28;20179;-46
2022/03/14 12:22:32;;;;;;;23.08;10.00;;;9.90;99.90;;;;;;5052753;28;20040;-46
2022/03/14 12:25:00;;;;;;;25.05;12.02;;;10.10;99.90;;;;;;5052659;28;20436;-46
2022/03/14 12:27:35;;;;;;;20.42;11.82;;;10.10;99.90;;;;;;5052785;28;20048;-46
2022/03/14 12:30:27;;;;;;;24.77;12.60;;;10.10;99.90;;;;;;5052422;28;20087;-46
2022/03/14 12:32:53;;;;;;;20.50;10.88;;;10.20;99.90;;;;;;5052225;28;20460;-46
2022/03/14 12:35:22;;;;;;;25.33;12.98;;;10.30;99.90;;;;;;5052258;28;20049;-46
2022/03/14 12:38:21;;;;;;;23.70;12.85;;;10.40;99.90;;;;;;5051879;28;20037;-48
2022/03/14 12:40:48;;;;;;;27.25;14.13;;;10.50;99.90;;;;;;5051211;28;20110;-51
2022/03/14 12:43:31;;;;;;;29.13;14.18;;;10.50;99.90;;;;;;5052402;28;20076;-47
2022/03/14 12:46:02;;;;;;;26.35;10.75;;;10.50;99.90;;;;;;5052100;28;20095;-46